Time;durP1;ratioP1;P1;durP2;ratioP2;P2;SDS_P1;SDS_P2;PMS_P1;PMS_P2;Temp;Humidity;BMP_temperature;BMP_pressure;BME280_temperature;BME280_humidity;BME280_pressure;Samples;Min_cycle;Max_cycle;Signal;HPM_P1;HPM_P2
2023/05/21 00:00:24;;;;;;;9.60;7.83;;;14.80;99.90;;;;;;5011500;28;21015;-73
2023/05/21 00:02:51;;;;;;;9.73;7.87;;;14.80;99.90;;;;;;5025642;28;20844;-73
2023/05/21 00:05:20;;;;;;;9.20;7.57;;;14.80;99.90;;;;;;5010848;28;20884;-73
2023/05/21 00:07:47;;;;;;;8.87;7.63;;;14.70;99.90;;;;;;5029827;28;20480;-73
2023/05/21 00:10:14;;;;;;;10.50;8.63;;;14.80;99.90;;;;;;5030224;28;20464;-73
2023/05/21 00:12:42;;;;;;;9.70;8.30;;;14.70;99.90;;;;;;5029837;28;20831;-74
2023/05/21 00:15:09;;;;;;;10.00;8.30;;;14.70;99.90;;;;;;5031064;28;20460;-73
2023/05/21 00:17:36;;;;;;;10.97;8.27;;;14.70;99.90;;;;;;5033707;28;20995;-73
2023/05/21 00:20:06;;;;;;;9.60;8.13;;;14.70;99.90;;;;;;5033839;28;20977;-73
2023/05/21 00:22:35;;;;;;;9.47;8.37;;;14.70;99.90;;;;;;5034039;28;20456;-73
2023/05/21 00:25:01;;;;;;;11.77;9.00;;;14.70;99.90;;;;;;5034268;28;20472;-73
2023/05/21 00:27:28;;;;;;;12.17;8.87;;;14.70;99.90;;;;;;5033717;28;20488;-73
2023/05/21 00:29:56;;;;;;;10.70;7.90;;;14.70;99.90;;;;;;5033309;28;20486;-73
2023/05/21 00:32:23;;;;;;;10.47;8.30;;;14.60;99.90;;;;;;5033931;28;20459;-73
2023/05/21 00:34:49;;;;;;;10.23;8.70;;;14.60;99.90;;;;;;5033900;28;21147;-74
2023/05/21 00:37:16;;;;;;;8.87;7.93;;;14.60;99.90;;;;;;5033777;28;20480;-73
2023/05/21 00:39:43;;;;;;;10.37;8.70;;;14.60;99.90;;;;;;5033066;28;20464;-73
2023/05/21 00:42:10;;;;;;;10.20;8.30;;;14.60;99.90;;;;;;5033865;28;20464;-74
2023/05/21 00:44:38;;;;;;;12.10;9.30;;;14.60;99.90;;;;;;5033413;28;20887;-73
2023/05/21 00:47:06;;;;;;;9.57;8.57;;;14.60;99.90;;;;;;5033725;28;20486;-73
2023/05/21 00:49:33;;;;;;;10.63;8.03;;;14.60;99.90;;;;;;5032978;28;20460;-73
2023/05/21 00:52:01;;;;;;;11.03;9.27;;;14.60;99.90;;;;;;5033483;28;20472;-73
2023/05/21 00:54:28;;;;;;;9.00;7.93;;;14.50;99.90;;;;;;5033531;28;20882;-73
2023/05/21 00:56:55;;;;;;;9.47;8.27;;;14.50;99.90;;;;;;5033171;28;20483;-73
2023/05/21 00:59:23;;;;;;;11.07;8.17;;;14.50;99.90;;;;;;5032744;28;20456;-73
2023/05/21 01:01:54;;;;;;;10.47;9.37;;;14.50;99.90;;;;;;5033176;28;20471;-73
2023/05/21 01:04:23;;;;;;;10.37;9.20;;;14.50;99.90;;;;;;5033261;28;20471;-73
2023/05/21 01:06:49;;;;;;;11.27;9.00;;;14.50;99.90;;;;;;5033030;28;20524;-73
2023/05/21 01:09:16;;;;;;;12.00;9.83;;;14.50;99.90;;;;;;5032814;28;20476;-74
2023/05/21 01:11:46;;;;;;;10.30;8.67;;;14.50;99.90;;;;;;5033279;28;20478;-73
2023/05/21 01:14:14;;;;;;;14.03;9.90;;;14.50;99.90;;;;;;5033179;28;20962;-74
2023/05/21 01:16:45;;;;;;;11.83;8.90;;;14.50;99.90;;;;;;5032935;28;21022;-73
2023/05/21 01:19:15;;;;;;;12.00;9.80;;;14.50;99.90;;;;;;5032965;28;20464;-73
2023/05/21 01:21:46;;;;;;;14.90;10.43;;;14.50;99.90;;;;;;5032687;28;20468;-73
2023/05/21 01:24:14;;;;;;;14.10;9.33;;;14.50;99.90;;;;;;5033149;28;20472;-73
2023/05/21 01:26:42;;;;;;;10.93;9.00;;;14.50;99.90;;;;;;5031813;28;21018;-74
2023/05/21 01:29:11;;;;;;;11.57;10.37;;;14.50;99.90;;;;;;5032321;28;20536;-74
2023/05/21 01:31:54;;;;;;;10.30;9.20;;;14.50;99.90;;;;;;5032733;28;20510;-74
2023/05/21 01:34:25;;;;;;;13.03;9.00;;;14.50;99.90;;;;;;5032939;28;20551;-74
2023/05/21 01:36:59;;;;;;;11.10;8.80;;;14.50;99.90;;;;;;5032566;28;20487;-74
2023/05/21 01:39:32;;;;;;;10.77;9.73;;;14.40;99.90;;;;;;5032106;28;20455;-74
2023/05/21 01:42:00;;;;;;;11.80;10.07;;;14.40;99.90;;;;;;5032492;28;20457;-74
2023/05/21 01:44:27;;;;;;;13.03;9.90;;;14.40;99.90;;;;;;5032385;28;20463;-74
2023/05/21 01:46:56;;;;;;;12.60;9.60;;;14.40;99.90;;;;;;5032359;28;20542;-74
2023/05/21 01:49:23;;;;;;;12.50;10.80;;;14.30;99.90;;;;;;5031898;28;20480;-74
2023/05/21 01:51:50;;;;;;;12.40;9.00;;;14.30;99.90;;;;;;5032475;28;20468;-74
2023/05/21 01:54:17;;;;;;;11.33;9.30;;;14.20;99.90;;;;;;5032507;28;20460;-74
2023/05/21 01:56:46;;;;;;;12.17;9.70;;;14.20;99.90;;;;;;5032021;28;20491;-74
2023/05/21 01:59:13;;;;;;;15.77;10.77;;;14.20;99.90;;;;;;5031958;28;20943;-74
2023/05/21 02:01:40;;;;;;;11.43;9.33;;;14.20;99.90;;;;;;5031966;28;20978;-74
2023/05/21 02:04:07;;;;;;;12.73;10.97;;;14.20;99.90;;;;;;5032153;28;20465;-74
2023/05/21 02:06:34;;;;;;;12.97;10.50;;;14.10;99.90;;;;;;5032058;28;20495;-74
2023/05/21 02:09:01;;;;;;;13.43;11.07;;;14.10;99.90;;;;;;5031351;28;20542;-74
2023/05/21 02:11:28;;;;;;;11.77;9.83;;;14.10;99.90;;;;;;5031840;28;20842;-73
2023/05/21 02:13:56;;;;;;;11.00;9.43;;;14.10;99.90;;;;;;5031901;28;20467;-74
2023/05/21 02:16:25;;;;;;;14.00;10.47;;;14.10;99.90;;;;;;5032110;28;20488;-74
2023/05/21 02:18:56;;;;;;;16.73;11.07;;;14.10;99.90;;;;;;5007663;28;20463;-73
2023/05/21 02:21:22;;;;;;;12.63;9.67;;;14.10;99.90;;;;;;5032024;28;20518;-74
2023/05/21 02:23:49;;;;;;;11.80;9.97;;;14.00;99.90;;;;;;5031746;28;20460;-74
2023/05/21 02:26:16;;;;;;;16.10;10.97;;;14.00;99.90;;;;;;5032060;28;20467;-74
2023/05/21 02:28:44;;;;;;;14.10;10.67;;;14.00;99.90;;;;;;5030878;28;20480;-74
2023/05/21 02:31:12;;;;;;;15.30;10.87;;;14.00;99.90;;;;;;5031683;28;20527;-74
2023/05/21 02:33:40;;;;;;;12.90;10.20;;;14.00;99.90;;;;;;5031477;28;20463;-73
2023/05/21 02:36:11;;;;;;;12.97;9.17;;;14.00;99.90;;;;;;5031616;28;20456;-74
2023/05/21 02:38:39;;;;;;;13.30;10.07;;;13.90;99.90;;;;;;5031088;28;20495;-73
2023/05/21 02:41:06;;;;;;;15.57;9.60;;;13.90;99.90;;;;;;5031399;28;20461;-73
2023/05/21 02:43:33;;;;;;;13.50;9.97;;;13.90;99.90;;;;;;5031481;28;20503;-73
2023/05/21 02:46:00;;;;;;;12.03;9.80;;;13.90;99.90;;;;;;5031277;28;20464;-73
2023/05/21 02:48:28;;;;;;;11.70;9.63;;;13.80;99.90;;;;;;5030773;28;20491;-73
2023/05/21 02:50:54;;;;;;;12.47;9.90;;;13.80;99.90;;;;;;5031212;28;20464;-73
2023/05/21 02:53:21;;;;;;;13.27;9.87;;;13.80;99.90;;;;;;5031414;28;20464;-74
2023/05/21 02:55:48;;;;;;;10.97;9.80;;;13.80;99.90;;;;;;5030947;28;20939;-73
2023/05/21 02:58:15;;;;;;;11.80;9.60;;;13.80;99.90;;;;;;5031002;28;20484;-73
2023/05/21 03:00:41;;;;;;;14.73;9.40;;;13.70;99.90;;;;;;5030909;28;20463;-73
2023/05/21 03:03:08;;;;;;;13.50;10.87;;;13.60;99.90;;;;;;5031340;28;20474;-73
2023/05/21 03:05:36;;;;;;;14.43;10.30;;;13.70;99.90;;;;;;5030786;28;20467;-73
2023/05/21 03:08:03;;;;;;;14.10;9.87;;;13.60;99.90;;;;;;5030325;28;20483;-73
2023/05/21 03:10:29;;;;;;;11.77;8.80;;;13.60;99.90;;;;;;5030723;28;20472;-73
2023/05/21 03:12:56;;;;;;;14.97;10.87;;;13.60;99.90;;;;;;5030740;28;20471;-73
2023/05/21 03:15:23;;;;;;;12.63;9.83;;;13.60;99.90;;;;;;5030851;28;20456;-73
2023/05/21 03:17:50;;;;;;;11.03;9.93;;;13.50;99.90;;;;;;5030101;28;20557;-73
2023/05/21 03:20:17;;;;;;;12.37;9.67;;;13.50;99.90;;;;;;5030971;28;20452;-73
2023/05/21 03:22:47;;;;;;;13.70;10.30;;;13.50;99.90;;;;;;5030396;28;20457;-73
2023/05/21 03:25:14;;;;;;;14.60;11.47;;;13.50;99.90;;;;;;5030763;28;20541;-73
2023/05/21 03:27:40;;;;;;;11.90;9.70;;;13.50;99.90;;;;;;5030180;28;20506;-73
2023/05/21 03:30:08;;;;;;;11.03;9.83;;;13.40;99.90;;;;;;5030231;28;20491;-73
2023/05/21 03:32:36;;;;;;;14.53;10.63;;;13.40;99.90;;;;;;5030422;28;20468;-73
2023/05/21 03:35:04;;;;;;;12.03;9.87;;;13.40;99.90;;;;;;5030556;28;20818;-73
2023/05/21 03:37:30;;;;;;;12.93;9.70;;;13.40;99.90;;;;;;5030120;28;20509;-73
2023/05/21 03:39:58;;;;;;;12.47;10.30;;;13.30;99.90;;;;;;5029955;28;20472;-73
2023/05/21 03:42:25;;;;;;;12.40;10.17;;;13.30;99.90;;;;;;5030574;28;20464;-73
2023/05/21 03:44:52;;;;;;;13.10;10.20;;;13.30;99.90;;;;;;5030311;28;20461;-73
2023/05/21 03:47:18;;;;;;;13.17;9.87;;;13.30;99.90;;;;;;5030291;28;20487;-73
2023/05/21 03:49:45;;;;;;;13.23;9.70;;;13.30;99.90;;;;;;5029104;28;20853;-73
2023/05/21 03:52:12;;;;;;;13.40;10.83;;;13.20;99.90;;;;;;5030515;28;20471;-73
2023/05/21 03:54:38;;;;;;;13.80;10.77;;;13.30;99.90;;;;;;5029978;28;20464;-72
2023/05/21 03:57:06;;;;;;;15.13;10.00;;;13.30;99.90;;;;;;5030252;28;20852;-73
2023/05/21 03:59:33;;;;;;;14.07;11.07;;;13.30;99.90;;;;;;5029706;28;20471;-73
2023/05/21 04:02:00;;;;;;;13.97;10.37;;;13.30;99.90;;;;;;5030069;28;20464;-72
2023/05/21 04:04:28;;;;;;;13.93;10.77;;;13.30;99.90;;;;;;5030231;28;20464;-73
2023/05/21 04:06:54;;;;;;;13.00;10.70;;;13.30;99.90;;;;;;5029849;28;20487;-73
2023/05/21 04:09:21;;;;;;;14.50;10.27;;;13.30;99.90;;;;;;5014360;28;20484;-73
2023/05/21 04:11:48;;;;;;;12.77;10.33;;;13.30;99.90;;;;;;5010178;28;20461;-73
2023/05/21 04:14:16;;;;;;;14.30;11.10;;;13.30;99.90;;;;;;5010489;28;20461;-72
2023/05/21 04:16:43;;;;;;;14.17;10.77;;;13.30;99.90;;;;;;5009780;28;20853;-73
2023/05/21 04:19:10;;;;;;;14.70;11.43;;;13.30;99.90;;;;;;5010021;28;20485;-73
2023/05/21 04:21:37;;;;;;;14.20;10.57;;;13.40;99.90;;;;;;5010044;28;20469;-73
2023/05/21 04:24:03;;;;;;;14.23;10.80;;;13.40;99.90;;;;;;5010194;28;20472;-72
2023/05/21 04:26:32;;;;;;;15.63;11.93;;;13.40;99.90;;;;;;5010313;28;20902;-72
2023/05/21 04:29:01;;;;;;;13.03;11.10;;;13.40;99.90;;;;;;5001993;28;20481;-73
2023/05/21 04:31:31;;;;;;;13.70;11.03;;;13.40;99.90;;;;;;5010401;28;20471;-73
2023/05/21 04:33:58;;;;;;;14.07;11.00;;;13.40;99.90;;;;;;5010102;28;20465;-72
2023/05/21 04:36:27;;;;;;;12.20;10.47;;;13.50;99.90;;;;;;5010250;28;20524;-72
2023/05/21 04:38:54;;;;;;;15.67;11.20;;;13.50;99.90;;;;;;5009392;28;20465;-73
2023/05/21 04:41:21;;;;;;;10.83;9.70;;;13.50;99.90;;;;;;5010152;28;20461;-72
2023/05/21 04:43:48;;;;;;;13.07;10.50;;;13.60;99.90;;;;;;5009823;28;20461;-74
2023/05/21 04:46:14;;;;;;;15.50;12.30;;;13.60;99.90;;;;;;5010138;28;20830;-73
2023/05/21 04:48:43;;;;;;;13.57;10.77;;;13.60;99.90;;;;;;5009262;28;20921;-73
2023/05/21 04:51:10;;;;;;;12.83;10.27;;;13.60;99.90;;;;;;5010186;28;20483;-73
2023/05/21 04:53:37;;;;;;;16.37;11.83;;;13.60;99.90;;;;;;5009715;28;20465;-73
2023/05/21 04:56:04;;;;;;;15.40;11.03;;;13.70;99.90;;;;;;5009985;28;20461;-73
2023/05/21 04:58:33;;;;;;;16.83;12.27;;;13.70;99.90;;;;;;5009704;28;20457;-73
2023/05/21 05:01:01;;;;;;;13.60;10.90;;;13.80;99.90;;;;;;5014030;28;20515;-73
2023/05/21 05:03:28;;;;;;;15.23;10.27;;;13.80;99.90;;;;;;5032668;28;20460;-73
2023/05/21 05:05:57;;;;;;;14.97;11.57;;;13.90;99.90;;;;;;5033302;28;20499;-73
2023/05/21 05:08:23;;;;;;;14.17;10.80;;;13.90;99.90;;;;;;5032949;28;20570;-73
2023/05/21 05:10:50;;;;;;;14.80;10.50;;;13.90;99.90;;;;;;5032966;28;20998;-73
2023/05/21 05:13:17;;;;;;;14.53;11.80;;;13.90;99.90;;;;;;5033445;28;20464;-73
2023/05/21 05:15:44;;;;;;;13.00;11.03;;;14.00;99.90;;;;;;5032806;28;20469;-73
2023/05/21 05:18:10;;;;;;;12.57;10.87;;;14.10;99.90;;;;;;5032700;28;20480;-73
2023/05/21 05:20:37;;;;;;;16.37;11.43;;;14.10;99.90;;;;;;5024782;28;20462;-73
2023/05/21 05:23:05;;;;;;;13.07;10.30;;;14.20;99.90;;;;;;5013432;28;20461;-73
2023/05/21 05:25:32;;;;;;;14.43;10.60;;;14.20;99.90;;;;;;5013089;28;20473;-73
2023/05/21 05:27:58;;;;;;;13.87;10.20;;;14.20;99.90;;;;;;5012045;28;20485;-74
2023/05/21 05:30:25;;;;;;;12.77;11.37;;;14.30;99.90;;;;;;5019561;28;20480;-73
2023/05/21 05:32:52;;;;;;;14.10;11.13;;;14.30;99.90;;;;;;5032332;28;20475;-73
2023/05/21 05:35:19;;;;;;;15.57;11.50;;;14.40;99.90;;;;;;5032585;28;20468;-73
2023/05/21 05:37:45;;;;;;;14.33;11.30;;;14.50;99.90;;;;;;5032006;28;20623;-73
2023/05/21 05:40:14;;;;;;;13.18;11.43;;;14.60;99.90;;;;;;5030502;28;20460;-72
2023/05/21 05:42:40;;;;;;;17.53;10.90;;;14.70;99.90;;;;;;5023536;28;20700;-72
2023/05/21 05:45:08;;;;;;;13.20;11.17;;;14.70;99.90;;;;;;5025452;28;20460;-72
2023/05/21 05:47:35;;;;;;;11.73;9.67;;;14.80;99.90;;;;;;5032450;28;20484;-72
2023/05/21 05:50:01;;;;;;;12.50;10.20;;;14.80;99.90;;;;;;5019653;28;20481;-72
2023/05/21 05:52:28;;;;;;;12.53;10.30;;;15.00;99.90;;;;;;5028071;28;20468;-72
2023/05/21 05:54:55;;;;;;;14.90;10.50;;;15.00;99.90;;;;;;5021607;28;20467;-72
2023/05/21 05:57:23;;;;;;;13.03;9.60;;;15.10;99.90;;;;;;5012757;28;20485;-72
2023/05/21 05:59:50;;;;;;;12.77;10.20;;;15.20;99.90;;;;;;5020216;28;20462;-73
2023/05/21 06:02:16;;;;;;;11.80;9.83;;;15.20;99.90;;;;;;5012855;28;20457;-72
2023/05/21 06:04:43;;;;;;;11.53;10.13;;;15.30;99.90;;;;;;5020595;28;20457;-72
2023/05/21 06:07:10;;;;;;;14.37;11.83;;;15.40;99.90;;;;;;5012447;28;20485;-72
2023/05/21 06:09:37;;;;;;;13.73;10.93;;;15.50;99.90;;;;;;5020476;28;20845;-72
2023/05/21 06:12:05;;;;;;;12.83;10.50;;;15.50;99.90;;;;;;5004464;28;21046;-72
2023/05/21 06:14:33;;;;;;;14.77;10.70;;;15.60;99.90;;;;;;5027805;28;20813;-72
2023/05/21 06:16:59;;;;;;;14.83;10.07;;;15.60;99.90;;;;;;5023700;28;20487;-72
2023/05/21 06:19:26;;;;;;;15.10;11.10;;;15.70;99.90;;;;;;5024988;28;20461;-72
2023/05/21 06:21:53;;;;;;;11.87;9.70;;;15.80;99.90;;;;;;5022432;28;20576;-72
2023/05/21 06:24:19;;;;;;;13.30;10.87;;;15.80;99.90;;;;;;5024180;28;20468;-72
2023/05/21 06:26:46;;;;;;;15.57;10.60;;;15.90;99.90;;;;;;5023612;28;20491;-72
2023/05/21 06:29:13;;;;;;;13.87;11.70;;;16.00;99.90;;;;;;5023032;28;20476;-72
2023/05/21 06:31:41;;;;;;;11.80;10.40;;;16.10;99.90;;;;;;5016867;28;20468;-72
2023/05/21 06:34:07;;;;;;;14.53;10.27;;;16.10;99.90;;;;;;5023878;28;20833;-72
2023/05/21 06:36:34;;;;;;;13.07;10.53;;;16.20;99.90;;;;;;5031331;28;20868;-72
2023/05/21 06:39:02;;;;;;;11.73;10.53;;;16.30;99.90;;;;;;5030585;28;20464;-72
2023/05/21 06:41:28;;;;;;;12.53;9.57;;;16.40;99.90;;;;;;5023269;28;20479;-72
2023/05/21 06:43:55;;;;;;;12.73;9.43;;;16.40;99.90;;;;;;5030739;28;20467;-72
2023/05/21 06:46:22;;;;;;;10.47;9.20;;;16.50;99.90;;;;;;5031239;28;20502;-72
2023/05/21 06:48:50;;;;;;;10.63;9.53;;;16.60;99.90;;;;;;5013510;28;20540;-72
2023/05/21 06:51:18;;;;;;;17.67;9.83;;;16.60;99.90;;;;;;5003637;28;20909;-72
2023/05/21 06:53:45;;;;;;;11.50;9.63;;;16.70;99.90;;;;;;5004608;28;20458;-72
2023/05/21 06:56:12;;;;;;;10.80;9.70;;;16.80;99.90;;;;;;5016284;28;20547;-72
2023/05/21 06:58:39;;;;;;;11.40;9.27;;;16.90;99.90;;;;;;5030719;28;20484;-72
2023/05/21 07:01:06;;;;;;;11.77;9.40;;;17.00;99.90;;;;;;5004934;28;20458;-72
2023/05/21 07:03:33;;;;;;;10.83;9.63;;;17.10;99.90;;;;;;5011059;28;20457;-72
2023/05/21 07:06:01;;;;;;;10.50;9.40;;;17.20;99.90;;;;;;5010456;28;20465;-72
2023/05/21 07:08:28;;;;;;;10.27;8.80;;;17.20;99.90;;;;;;5010806;28;20464;-72
2023/05/21 07:10:55;;;;;;;11.27;9.27;;;17.40;99.90;;;;;;5010476;28;20485;-72
2023/05/21 07:13:23;;;;;;;11.30;9.47;;;17.40;99.90;;;;;;5010925;28;20457;-71
2023/05/21 07:15:50;;;;;;;12.00;9.80;;;17.50;99.90;;;;;;5010168;28;20461;-71
2023/05/21 07:18:17;;;;;;;9.97;8.80;;;17.60;99.90;;;;;;5009793;28;20556;-72
2023/05/21 07:20:44;;;;;;;9.70;8.50;;;17.60;99.90;;;;;;5010598;28;20456;-72
2023/05/21 07:23:12;;;;;;;9.73;8.17;;;17.70;99.90;;;;;;5010768;28;20564;-72
2023/05/21 07:25:40;;;;;;;8.87;7.97;;;17.80;99.90;;;;;;5010086;28;20531;-71
2023/05/21 07:28:07;;;;;;;11.17;9.27;;;17.90;99.90;;;;;;5009844;28;20488;-71
2023/05/21 07:30:34;;;;;;;10.33;8.57;;;17.90;99.90;;;;;;5010187;28;20509;-72
2023/05/21 07:33:01;;;;;;;9.50;7.90;;;18.00;99.90;;;;;;5009847;28;20515;-72
2023/05/21 07:35:28;;;;;;;9.47;7.90;;;18.10;99.90;;;;;;5010636;28;20820;-72
2023/05/21 07:37:54;;;;;;;11.50;9.07;;;18.30;99.90;;;;;;5009919;28;20899;-72
2023/05/21 07:40:23;;;;;;;11.23;8.80;;;18.40;99.90;;;;;;5010428;28;20457;-72
2023/05/21 07:42:50;;;;;;;9.10;7.83;;;18.50;99.90;;;;;;5009873;28;20464;-72
2023/05/21 07:45:17;;;;;;;8.73;7.83;;;18.50;99.90;;;;;;5010417;28;20492;-72
2023/05/21 07:47:46;;;;;;;8.47;7.37;;;18.60;99.90;;;;;;5009375;28;20991;-72
2023/05/21 07:50:14;;;;;;;8.87;8.00;;;18.70;99.90;;;;;;5009831;28;20595;-72
2023/05/21 07:52:41;;;;;;;9.17;7.20;;;18.80;99.90;;;;;;5010078;28;21067;-72
2023/05/21 07:55:09;;;;;;;10.60;7.83;;;18.90;99.90;;;;;;4995633;28;20469;-72
2023/05/21 07:57:38;;;;;;;11.87;8.20;;;19.00;99.90;;;;;;5008777;28;20512;-72
2023/05/21 08:00:07;;;;;;;7.60;6.80;;;19.00;99.90;;;;;;5020759;28;20880;-72
2023/05/21 08:02:34;;;;;;;8.27;7.47;;;19.10;99.90;;;;;;5003170;28;20531;-72
2023/05/21 08:05:01;;;;;;;10.70;7.60;;;19.20;99.90;;;;;;5011299;28;20551;-72
2023/05/21 08:07:28;;;;;;;13.43;7.90;;;19.40;99.90;;;;;;5020017;28;20492;-72
2023/05/21 08:09:55;;;;;;;8.37;7.57;;;19.40;99.90;;;;;;5022760;28;20511;-73
2023/05/21 08:12:21;;;;;;;10.17;8.20;;;19.60;99.90;;;;;;5023717;28;20559;-72
2023/05/21 08:14:50;;;;;;;11.23;7.77;;;19.90;99.90;;;;;;5017230;28;20461;-72
2023/05/21 08:17:17;;;;;;;8.10;7.30;;;20.10;99.90;;;;;;5008716;28;20496;-72
2023/05/21 08:19:43;;;;;;;10.10;8.07;;;20.20;99.90;;;;;;4997105;28;20469;-72
2023/05/21 08:22:10;;;;;;;8.93;6.73;;;20.20;99.90;;;;;;5000422;28;20996;-72
2023/05/21 08:24:37;;;;;;;7.20;6.23;;;20.30;99.90;;;;;;4996681;28;20488;-72
2023/05/21 08:27:04;;;;;;;8.17;7.37;;;20.40;99.90;;;;;;5008395;28;20485;-72
2023/05/21 08:29:31;;;;;;;7.50;6.80;;;20.60;99.90;;;;;;5007867;28;20504;-71
2023/05/21 08:32:00;;;;;;;7.40;6.70;;;20.60;99.90;;;;;;5007543;28;20468;-72
2023/05/21 08:34:26;;;;;;;7.97;7.03;;;20.60;99.90;;;;;;5008714;28;20516;-71
2023/05/21 08:36:53;;;;;;;9.03;6.77;;;20.80;99.90;;;;;;5010433;28;20875;-71
2023/05/21 08:39:20;;;;;;;8.00;7.20;;;21.00;99.90;;;;;;5012084;28;20473;-72
2023/05/21 08:41:50;;;;;;;7.30;6.60;;;21.00;99.90;;;;;;5012397;28;20501;-71
2023/05/21 08:44:20;;;;;;;8.57;6.73;;;21.10;99.90;;;;;;5011720;28;20568;-72
2023/05/21 08:46:50;;;;;;;9.23;7.33;;;21.20;99.90;;;;;;5012203;28;20508;-71
2023/05/21 08:49:21;;;;;;;8.03;6.63;;;21.40;99.90;;;;;;5012025;28;20503;-71
2023/05/21 08:51:50;;;;;;;8.97;6.27;;;21.60;99.90;;;;;;5012190;28;20489;-71
2023/05/21 08:54:16;;;;;;;8.53;6.90;;;21.70;99.90;;;;;;5010229;28;20564;-71
2023/05/21 08:56:45;;;;;;;9.73;7.63;;;21.80;99.90;;;;;;5011669;28;20490;-72
2023/05/21 08:59:13;;;;;;;10.87;8.53;;;21.90;99.90;;;;;;5002724;28;20492;-72
2023/05/21 09:01:42;;;;;;;7.83;6.83;;;22.10;99.90;;;;;;5011693;28;20469;-72
2023/05/21 09:04:10;;;;;;;6.80;6.17;;;22.40;99.90;;;;;;5007632;28;20467;-71
2023/05/21 09:06:40;;;;;;;8.00;6.90;;;22.50;99.90;;;;;;5012935;28;20476;-72
2023/05/21 09:09:15;;;;;;;7.80;7.00;;;22.60;99.90;;;;;;5011321;28;20468;-72
2023/05/21 09:11:42;;;;;;;6.93;6.23;;;22.70;99.90;;;;;;5012903;28;21009;-74
2023/05/21 09:14:11;;;;;;;7.70;6.97;;;22.80;99.90;;;;;;5012142;28;20494;-72
2023/05/21 09:16:37;;;;;;;9.37;7.57;;;22.90;99.90;;;;;;5019523;28;20480;-71
2023/05/21 09:19:04;;;;;;;7.67;6.87;;;23.10;99.90;;;;;;5031584;28;20986;-73
2023/05/21 09:21:32;;;;;;;8.43;7.37;;;23.00;99.90;;;;;;5032219;28;20552;-74
2023/05/21 09:24:00;;;;;;;7.23;6.53;;;22.90;99.90;;;;;;5031501;28;20563;-71
2023/05/21 09:26:27;;;;;;;9.67;7.20;;;22.90;99.90;;;;;;5032275;28;21007;-71
2023/05/21 09:28:57;;;;;;;7.70;7.00;;;22.80;99.90;;;;;;5030915;28;20847;-72
2023/05/21 09:31:25;;;;;;;8.60;7.80;;;22.80;99.90;;;;;;5018651;28;20479;-72
2023/05/21 09:33:54;;;;;;;9.57;7.83;;;22.80;99.90;;;;;;5011476;28;20468;-72
2023/05/21 09:36:21;;;;;;;9.80;8.67;;;23.00;99.90;;;;;;5016782;28;20474;-74
2023/05/21 09:38:49;;;;;;;9.30;7.13;;;23.20;99.90;;;;;;5023141;28;20985;-74
2023/05/21 09:41:17;;;;;;;9.40;7.60;;;23.30;99.90;;;;;;5016370;28;20499;-71
2023/05/21 09:43:44;;;;;;;9.60;7.77;;;23.30;99.90;;;;;;5016160;28;20469;-71
2023/05/21 09:46:11;;;;;;;10.93;9.90;;;23.30;99.90;;;;;;5010214;28;20648;-71
2023/05/21 09:48:40;;;;;;;8.77;7.87;;;23.30;99.90;;;;;;5009228;28;20562;-73
2023/05/21 09:51:12;;;;;;;8.77;7.87;;;23.20;99.90;;;;;;5013980;28;21018;-73
2023/05/21 09:53:50;;;;;;;8.73;7.83;;;23.30;99.90;;;;;;5031146;28;20467;-71
2023/05/21 09:56:21;;;;;;;8.77;7.90;;;23.40;99.90;;;;;;5031658;28;20606;-71
2023/05/21 09:58:48;;;;;;;8.53;7.63;;;23.60;99.90;;;;;;5030837;28;20466;-72
2023/05/21 10:01:14;;;;;;;9.30;8.20;;;23.90;99.90;;;;;;5013987;28;20549;-72
2023/05/21 10:03:42;;;;;;;9.80;7.90;;;24.10;99.90;;;;;;5012362;28;21039;-72
2023/05/21 10:06:10;;;;;;;9.70;8.77;;;24.10;99.90;;;;;;5011876;28;20472;-72
2023/05/21 10:08:44;;;;;;;8.50;7.70;;;24.40;99.90;;;;;;5006791;28;20851;-71
2023/05/21 10:11:12;;;;;;;8.30;7.37;;;24.50;99.90;;;;;;5008748;28;20492;-72
2023/05/21 10:13:45;;;;;;;9.17;8.20;;;24.60;99.90;;;;;;5002681;28;20462;-72
2023/05/21 10:16:12;;;;;;;8.47;7.60;;;24.70;99.90;;;;;;5010066;28;20481;-73
2023/05/21 10:18:40;;;;;;;8.70;7.90;;;24.90;99.90;;;;;;5011462;28;20461;-73
2023/05/21 10:21:07;;;;;;;7.70;6.93;;;25.10;99.90;;;;;;5011454;28;20458;-73
2023/05/21 10:23:36;;;;;;;8.23;7.43;;;25.20;99.90;;;;;;5011238;28;20462;-73
2023/05/21 10:26:03;;;;;;;8.93;8.00;;;25.10;99.90;;;;;;5010998;28;21073;-73
2023/05/21 10:28:32;;;;;;;8.07;7.27;;;25.30;99.90;;;;;;5016071;28;20460;-73
2023/05/21 10:31:01;;;;;;;7.97;7.20;;;25.50;99.90;;;;;;5030461;28;20484;-73
2023/05/21 10:33:29;;;;;;;9.00;7.23;;;25.40;99.90;;;;;;5031179;28;20514;-73
2023/05/21 10:35:58;;;;;;;7.10;6.40;;;25.40;99.90;;;;;;5031661;28;20492;-73
2023/05/21 10:38:25;;;;;;;8.47;7.60;;;25.50;99.90;;;;;;5030627;28;20496;-73
2023/05/21 10:40:53;;;;;;;8.10;7.30;;;25.60;99.90;;;;;;5031011;28;20460;-73
2023/05/21 10:43:41;;;;;;;7.40;6.67;;;25.70;99.90;;;;;;5030772;28;20465;-73
2023/05/21 10:46:37;;;;;;;7.90;7.20;;;25.70;99.90;;;;;;5031225;28;20862;-73
2023/05/21 10:49:24;;;;;;;7.70;7.00;;;25.70;99.90;;;;;;5027033;28;20978;-73
2023/05/21 10:52:03;;;;;;;7.60;6.37;;;25.70;99.90;;;;;;5030409;28;20485;-72
2023/05/21 10:54:51;;;;;;;8.33;7.53;;;25.60;99.90;;;;;;5004645;28;20462;-73
2023/05/21 10:57:30;;;;;;;7.43;6.40;;;25.60;99.90;;;;;;5010657;28;21190;-73
2023/05/21 10:59:58;;;;;;;10.73;7.10;;;25.80;99.90;;;;;;5007854;28;20478;-73
2023/05/21 11:02:27;;;;;;;7.87;7.00;;;26.10;99.90;;;;;;5010291;28;20470;-73
2023/05/21 11:04:58;;;;;;;6.80;6.10;;;26.10;99.90;;;;;;5010398;28;20549;-72
2023/05/21 11:07:54;;;;;;;6.83;6.13;;;26.20;99.90;;;;;;5008485;28;20488;-73
2023/05/21 11:10:31;;;;;;;6.13;5.53;;;26.20;99.90;;;;;;5010642;28;20602;-72
2023/05/21 11:13:22;;;;;;;7.00;6.40;;;26.10;99.90;;;;;;5009318;28;20496;-72
2023/05/21 11:16:06;;;;;;;6.33;5.80;;;26.00;99.90;;;;;;4990709;28;20455;-72
2023/05/21 11:19:03;;;;;;;6.77;6.00;;;25.80;99.90;;;;;;5010121;28;20460;-72
2023/05/21 11:21:31;;;;;;;5.60;5.10;;;26.10;99.90;;;;;;5010558;28;20494;-72
2023/05/21 11:24:02;;;;;;;6.37;5.80;;;26.20;99.90;;;;;;5009658;28;20456;-73
2023/05/21 11:26:30;;;;;;;8.00;6.63;;;26.30;99.90;;;;;;5010243;28;20487;-72
2023/05/21 11:29:08;;;;;;;6.80;6.20;;;26.20;99.90;;;;;;5009013;28;20488;-72
2023/05/21 11:31:37;;;;;;;7.60;6.37;;;26.30;99.90;;;;;;5010431;28;20479;-72
2023/05/21 11:34:18;;;;;;;6.87;6.37;;;26.50;99.90;;;;;;5008594;28;20464;-73
2023/05/21 11:36:46;;;;;;;5.90;5.40;;;26.50;99.90;;;;;;5005270;28;20551;-72
2023/05/21 11:39:16;;;;;;;7.63;6.17;;;26.60;99.90;;;;;;5009109;28;20473;-72
2023/05/21 11:41:53;;;;;;;7.47;6.67;;;26.50;99.90;;;;;;5010421;28;20465;-72
2023/05/21 11:44:37;;;;;;;7.30;6.47;;;26.60;99.90;;;;;;5009427;28;20471;-72
2023/05/21 11:47:05;;;;;;;7.20;6.60;;;26.80;99.90;;;;;;5009777;28;20492;-72
2023/05/21 11:49:33;;;;;;;7.50;6.77;;;26.90;99.90;;;;;;5007548;28;20476;-73
2023/05/21 11:52:00;;;;;;;7.07;6.30;;;26.80;99.90;;;;;;5019261;28;20478;-72
2023/05/21 11:54:28;;;;;;;6.50;5.90;;;26.80;99.90;;;;;;5022026;28;20533;-72
2023/05/21 11:56:55;;;;;;;6.60;6.00;;;26.60;99.90;;;;;;5021165;28;20493;-72
2023/05/21 11:59:22;;;;;;;7.70;6.37;;;26.70;99.90;;;;;;5006986;28;20479;-72
2023/05/21 12:01:48;;;;;;;7.73;6.90;;;26.60;99.90;;;;;;5010699;28;21113;-72
2023/05/21 12:04:15;;;;;;;7.73;6.90;;;26.30;99.90;;;;;;5010594;28;20463;-72
2023/05/21 12:06:44;;;;;;;6.13;5.60;;;26.30;99.90;;;;;;5024519;28;20487;-72
2023/05/21 12:09:11;;;;;;;7.80;7.00;;;26.30;99.90;;;;;;5029410;28;20520;-72
2023/05/21 12:11:39;;;;;;;6.37;5.87;;;26.30;99.90;;;;;;5031737;28;20484;-72
2023/05/21 12:14:08;;;;;;;7.93;7.23;;;26.10;99.90;;;;;;5015240;28;20464;-72
2023/05/21 12:16:36;;;;;;;6.43;5.83;;;26.00;99.90;;;;;;5014634;28;20500;-72
2023/05/21 12:19:03;;;;;;;7.10;6.43;;;26.00;99.90;;;;;;5013905;28;20465;-72
2023/05/21 12:21:30;;;;;;;7.00;6.03;;;26.00;99.90;;;;;;5013846;28;20456;-72
2023/05/21 12:23:59;;;;;;;6.73;6.07;;;26.00;99.90;;;;;;5013785;28;20465;-72
2023/05/21 12:26:26;;;;;;;6.30;5.70;;;25.90;99.90;;;;;;5013485;28;20492;-72
2023/05/21 12:28:54;;;;;;;6.57;5.97;;;25.80;99.90;;;;;;5013240;28;20467;-72
2023/05/21 12:31:21;;;;;;;6.30;5.80;;;25.60;99.90;;;;;;5012400;28;20484;-73
2023/05/21 12:33:49;;;;;;;6.17;5.57;;;25.60;99.90;;;;;;5013705;28;20472;-72
2023/05/21 12:36:22;;;;;;;6.20;5.60;;;25.40;99.90;;;;;;5013435;28;20471;-72
2023/05/21 12:38:50;;;;;;;5.53;5.03;;;25.40;99.90;;;;;;5013993;28;20514;-72
2023/05/21 12:41:18;;;;;;;6.43;5.57;;;25.50;99.90;;;;;;5013868;28;20457;-71
2023/05/21 12:43:46;;;;;;;5.93;5.43;;;25.50;99.90;;;;;;5013969;28;20462;-71